BVB weather

Atlas Brasil Cantanhede Airport
Boa Vista, Roraima, Brazil

Public forecast

Using degrees Celsius for public forecast. Weather courtesy of forecast.io.

Current aviation weather report (METAR) for Atlas Brasil Cantanhede Airport

Retrieved 2020/01/28 09:00 UTC (54 minutes ago):

SBBV 280900Z 09011KT CAVOK 26/22 Q1011

Aviation forecast (TAF) for Atlas Brasil Cantanhede Airport

Retrieved 2020/01/28 06:00 UTC (4 hours ago):

TAF SBBV 280400Z 2806/2906 09007KT CAVOK TN26/2810Z TX35/2819Z BECMG 2812/2815 11012KT BKN035 BECMG 2820/2822 13007KT FEW035 RMK PHC